sensor_id;sensor_type;location;lat;lon;timestamp;temperature;humidity
7214;DHT22;3648;50.614;13.830;2023-07-20T00:01:33;17.70;99.90
7214;DHT22;3648;50.614;13.830;2023-07-20T00:04:00;17.80;99.90
7214;DHT22;3648;50.614;13.830;2023-07-20T00:06:29;17.70;99.90
7214;DHT22;3648;50.614;13.830;2023-07-20T00:08:55;17.70;99.90
7214;DHT22;3648;50.614;13.830;2023-07-20T00:11:26;17.70;99.90
7214;DHT22;3648;50.614;13.830;2023-07-20T00:13:53;17.70;99.90
7214;DHT22;3648;50.614;13.830;2023-07-20T00:16:20;17.70;99.90
7214;DHT22;3648;50.614;13.830;2023-07-20T00:18:47;17.80;99.90
7214;DHT22;3648;50.614;13.830;2023-07-20T00:21:14;17.80;99.90
7214;DHT22;3648;50.614;13.830;2023-07-20T00:23:43;17.90;99.90
7214;DHT22;3648;50.614;13.830;2023-07-20T00:26:10;17.90;99.90
7214;DHT22;3648;50.614;13.830;2023-07-20T00:28:36;17.90;99.90
7214;DHT22;3648;50.614;13.830;2023-07-20T00:31:04;17.90;99.90
7214;DHT22;3648;50.614;13.830;2023-07-20T00:33:31;17.90;99.90
7214;DHT22;3648;50.614;13.830;2023-07-20T00:35:58;17.90;99.90
7214;DHT22;3648;50.614;13.830;2023-07-20T00:38:25;17.90;99.90
7214;DHT22;3648;50.614;13.830;2023-07-20T00:40:53;17.90;99.90
7214;DHT22;3648;50.614;13.830;2023-07-20T00:43:20;17.90;99.90
7214;DHT22;3648;50.614;13.830;2023-07-20T00:45:47;17.80;99.90
7214;DHT22;3648;50.614;13.830;2023-07-20T00:48:14;17.90;99.90
7214;DHT22;3648;50.614;13.830;2023-07-20T00:50:42;17.80;99.90
7214;DHT22;3648;50.614;13.830;2023-07-20T00:53:09;17.80;99.90
7214;DHT22;3648;50.614;13.830;2023-07-20T00:55:36;17.80;99.90
7214;DHT22;3648;50.614;13.830;2023-07-20T00:58:05;17.90;99.90
7214;DHT22;3648;50.614;13.830;2023-07-20T01:00:32;17.90;99.90
7214;DHT22;3648;50.614;13.830;2023-07-20T01:02:59;17.80;99.90
7214;DHT22;3648;50.614;13.830;2023-07-20T01:05:35;17.80;99.90
7214;DHT22;3648;50.614;13.830;2023-07-20T01:08:09;17.90;99.90
7214;DHT22;3648;50.614;13.830;2023-07-20T01:10:40;17.90;99.90
7214;DHT22;3648;50.614;13.830;2023-07-20T01:13:10;17.90;99.90
7214;DHT22;3648;50.614;13.830;2023-07-20T01:15:37;17.90;99.90
7214;DHT22;3648;50.614;13.830;2023-07-20T01:18:04;18.00;99.90
7214;DHT22;3648;50.614;13.830;2023-07-20T01:20:33;18.00;99.90
7214;DHT22;3648;50.614;13.830;2023-07-20T01:23:28;18.00;99.90
7214;DHT22;3648;50.614;13.830;2023-07-20T01:26:11;18.00;99.90
7214;DHT22;3648;50.614;13.830;2023-07-20T01:29:03;18.00;99.90
7214;DHT22;3648;50.614;13.830;2023-07-20T01:31:33;18.00;99.90
7214;DHT22;3648;50.614;13.830;2023-07-20T01:34:02;18.10;99.90
7214;DHT22;3648;50.614;13.830;2023-07-20T01:36:34;18.10;99.90
7214;DHT22;3648;50.614;13.830;2023-07-20T01:39:02;18.10;99.90
7214;DHT22;3648;50.614;13.830;2023-07-20T01:41:30;18.10;99.90
7214;DHT22;3648;50.614;13.830;2023-07-20T01:43:58;18.10;99.90
7214;DHT22;3648;50.614;13.830;2023-07-20T01:46:25;18.10;99.90
7214;DHT22;3648;50.614;13.830;2023-07-20T01:48:54;18.10;99.90
7214;DHT22;3648;50.614;13.830;2023-07-20T01:51:21;18.10;99.90
7214;DHT22;3648;50.614;13.830;2023-07-20T01:53:48;18.10;99.90
7214;DHT22;3648;50.614;13.830;2023-07-20T01:56:15;18.10;99.90
7214;DHT22;3648;50.614;13.830;2023-07-20T01:58:42;18.10;99.90
7214;DHT22;3648;50.614;13.830;2023-07-20T02:01:09;18.10;99.90
7214;DHT22;3648;50.614;13.830;2023-07-20T02:03:36;18.10;99.90
7214;DHT22;3648;50.614;13.830;2023-07-20T02:06:05;18.10;99.90
7214;DHT22;3648;50.614;13.830;2023-07-20T02:08:32;18.10;99.90
7214;DHT22;3648;50.614;13.830;2023-07-20T02:10:59;18.10;99.90
7214;DHT22;3648;50.614;13.830;2023-07-20T02:13:26;18.10;99.90
7214;DHT22;3648;50.614;13.830;2023-07-20T02:15:53;18.10;99.90
7214;DHT22;3648;50.614;13.830;2023-07-20T02:18:20;18.10;99.90
7214;DHT22;3648;50.614;13.830;2023-07-20T02:20:47;18.10;99.90
7214;DHT22;3648;50.614;13.830;2023-07-20T02:23:15;18.10;99.90
7214;DHT22;3648;50.614;13.830;2023-07-20T02:25:42;18.10;99.90
7214;DHT22;3648;50.614;13.830;2023-07-20T02:28:12;18.10;99.90
7214;DHT22;3648;50.614;13.830;2023-07-20T02:30:40;18.00;99.90
7214;DHT22;3648;50.614;13.830;2023-07-20T02:33:07;18.00;99.90
7214;DHT22;3648;50.614;13.830;2023-07-20T02:35:34;18.00;99.90
7214;DHT22;3648;50.614;13.830;2023-07-20T02:38:01;18.00;99.90
7214;DHT22;3648;50.614;13.830;2023-07-20T02:40:30;18.00;99.90
7214;DHT22;3648;50.614;13.830;2023-07-20T02:42:57;18.00;99.90
7214;DHT22;3648;50.614;13.830;2023-07-20T02:45:24;18.00;99.90
7214;DHT22;3648;50.614;13.830;2023-07-20T02:47:51;17.90;99.90
7214;DHT22;3648;50.614;13.830;2023-07-20T02:50:18;17.90;99.90
7214;DHT22;3648;50.614;13.830;2023-07-20T02:52:45;17.90;99.90
7214;DHT22;3648;50.614;13.830;2023-07-20T02:55:12;17.90;99.90
7214;DHT22;3648;50.614;13.830;2023-07-20T02:57:40;17.90;99.90
7214;DHT22;3648;50.614;13.830;2023-07-20T03:00:08;17.80;99.90
7214;DHT22;3648;50.614;13.830;2023-07-20T03:02:35;17.80;99.90
7214;DHT22;3648;50.614;13.830;2023-07-20T03:05:02;17.80;99.90
7214;DHT22;3648;50.614;13.830;2023-07-20T03:07:32;17.80;99.90
7214;DHT22;3648;50.614;13.830;2023-07-20T03:09:59;17.80;99.90
7214;DHT22;3648;50.614;13.830;2023-07-20T03:12:26;17.80;99.90
7214;DHT22;3648;50.614;13.830;2023-07-20T03:14:55;17.70;99.90
7214;DHT22;3648;50.614;13.830;2023-07-20T03:17:22;17.70;99.90
7214;DHT22;3648;50.614;13.830;2023-07-20T03:19:49;17.70;99.90
7214;DHT22;3648;50.614;13.830;2023-07-20T03:22:16;17.70;99.90
7214;DHT22;3648;50.614;13.830;2023-07-20T03:24:43;17.70;99.90
7214;DHT22;3648;50.614;13.830;2023-07-20T03:27:10;17.70;99.90
7214;DHT22;3648;50.614;13.830;2023-07-20T03:29:37;17.60;99.90
7214;DHT22;3648;50.614;13.830;2023-07-20T03:32:06;17.70;99.90
7214;DHT22;3648;50.614;13.830;2023-07-20T03:34:33;17.60;99.90
7214;DHT22;3648;50.614;13.830;2023-07-20T03:37:00;17.60;99.90
7214;DHT22;3648;50.614;13.830;2023-07-20T03:39:30;17.60;99.90
7214;DHT22;3648;50.614;13.830;2023-07-20T03:41:57;17.60;99.90
7214;DHT22;3648;50.614;13.830;2023-07-20T03:44:24;17.60;99.90
7214;DHT22;3648;50.614;13.830;2023-07-20T03:46:51;17.60;99.90
7214;DHT22;3648;50.614;13.830;2023-07-20T03:49:20;17.60;99.90
7214;DHT22;3648;50.614;13.830;2023-07-20T03:51:47;17.60;99.90
7214;DHT22;3648;50.614;13.830;2023-07-20T03:54:14;17.50;99.90
7214;DHT22;3648;50.614;13.830;2023-07-20T03:56:41;17.40;99.90
7214;DHT22;3648;50.614;13.830;2023-07-20T03:59:08;17.40;99.90
7214;DHT22;3648;50.614;13.830;2023-07-20T04:01:35;17.40;99.90
7214;DHT22;3648;50.614;13.830;2023-07-20T04:04:06;17.40;99.90
7214;DHT22;3648;50.614;13.830;2023-07-20T04:06:34;17.30;99.90
7214;DHT22;3648;50.614;13.830;2023-07-20T04:09:02;17.30;99.90
7214;DHT22;3648;50.614;13.830;2023-07-20T04:11:30;17.30;99.90
7214;DHT22;3648;50.614;13.830;2023-07-20T04:13:57;17.30;99.90
7214;DHT22;3648;50.614;13.830;2023-07-20T04:16:24;17.20;99.90
7214;DHT22;3648;50.614;13.830;2023-07-20T04:18:51;17.30;99.90
7214;DHT22;3648;50.614;13.830;2023-07-20T04:21:18;17.30;99.90
7214;DHT22;3648;50.614;13.830;2023-07-20T04:23:47;17.20;99.90
7214;DHT22;3648;50.614;13.830;2023-07-20T04:26:14;17.30;99.90
7214;DHT22;3648;50.614;13.830;2023-07-20T04:28:41;17.30;99.90
7214;DHT22;3648;50.614;13.830;2023-07-20T04:31:12;17.30;99.90
7214;DHT22;3648;50.614;13.830;2023-07-20T04:33:40;17.30;99.90
7214;DHT22;3648;50.614;13.830;2023-07-20T04:36:07;17.30;99.90
7214;DHT22;3648;50.614;13.830;2023-07-20T04:38:34;17.30;99.90
7214;DHT22;3648;50.614;13.830;2023-07-20T04:41:03;17.40;99.90
7214;DHT22;3648;50.614;13.830;2023-07-20T04:43:30;17.40;99.90
7214;DHT22;3648;50.614;13.830;2023-07-20T04:45:57;17.40;99.90
7214;DHT22;3648;50.614;13.830;2023-07-20T04:48:24;17.50;99.90
7214;DHT22;3648;50.614;13.830;2023-07-20T04:50:51;17.50;99.90
7214;DHT22;3648;50.614;13.830;2023-07-20T04:53:18;17.50;99.90
7214;DHT22;3648;50.614;13.830;2023-07-20T04:55:49;17.40;99.90
7214;DHT22;3648;50.614;13.830;2023-07-20T04:58:19;17.50;99.90
7214;DHT22;3648;50.614;13.830;2023-07-20T05:00:46;17.50;99.90
7214;DHT22;3648;50.614;13.830;2023-07-20T05:03:13;17.50;99.90
7214;DHT22;3648;50.614;13.830;2023-07-20T05:05:40;17.50;99.90
7214;DHT22;3648;50.614;13.830;2023-07-20T05:08:07;17.50;99.90
7214;DHT22;3648;50.614;13.830;2023-07-20T05:10:34;17.60;99.90
7214;DHT22;3648;50.614;13.830;2023-07-20T05:13:01;17.60;99.90
7214;DHT22;3648;50.614;13.830;2023-07-20T05:15:29;17.50;99.90
7214;DHT22;3648;50.614;13.830;2023-07-20T05:17:56;17.60;99.90
7214;DHT22;3648;50.614;13.830;2023-07-20T05:20:23;17.70;99.90
7214;DHT22;3648;50.614;13.830;2023-07-20T05:22:49;17.70;99.90
7214;DHT22;3648;50.614;13.830;2023-07-20T05:25:18;17.70;99.90
7214;DHT22;3648;50.614;13.830;2023-07-20T05:27:48;17.80;99.90
7214;DHT22;3648;50.614;13.830;2023-07-20T05:30:16;17.80;99.90
7214;DHT22;3648;50.614;13.830;2023-07-20T05:32:44;17.90;99.90
7214;DHT22;3648;50.614;13.830;2023-07-20T05:35:16;17.90;99.90
7214;DHT22;3648;50.614;13.830;2023-07-20T05:37:43;18.00;99.90
7214;DHT22;3648;50.614;13.830;2023-07-20T05:40:11;18.00;99.90
7214;DHT22;3648;50.614;13.830;2023-07-20T05:42:38;18.10;99.90
7214;DHT22;3648;50.614;13.830;2023-07-20T05:45:06;18.10;99.90
7214;DHT22;3648;50.614;13.830;2023-07-20T05:47:33;18.20;99.90
7214;DHT22;3648;50.614;13.830;2023-07-20T05:50:02;18.20;99.90
7214;DHT22;3648;50.614;13.830;2023-07-20T05:52:29;18.20;99.90
7214;DHT22;3648;50.614;13.830;2023-07-20T05:54:57;18.30;99.90
7214;DHT22;3648;50.614;13.830;2023-07-20T05:57:23;18.30;99.90
7214;DHT22;3648;50.614;13.830;2023-07-20T05:59:51;18.30;99.90
7214;DHT22;3648;50.614;13.830;2023-07-20T06:02:18;18.30;99.90
7214;DHT22;3648;50.614;13.830;2023-07-20T06:04:45;18.30;99.90
7214;DHT22;3648;50.614;13.830;2023-07-20T06:07:13;18.40;99.90
7214;DHT22;3648;50.614;13.830;2023-07-20T06:09:40;18.40;99.90
7214;DHT22;3648;50.614;13.830;2023-07-20T06:12:09;18.40;99.90
7214;DHT22;3648;50.614;13.830;2023-07-20T06:14:36;18.40;99.90
7214;DHT22;3648;50.614;13.830;2023-07-20T06:17:04;18.50;99.90
7214;DHT22;3648;50.614;13.830;2023-07-20T06:19:31;18.50;99.90
7214;DHT22;3648;50.614;13.830;2023-07-20T06:21:58;18.60;99.90
7214;DHT22;3648;50.614;13.830;2023-07-20T06:24:26;18.60;99.90
7214;DHT22;3648;50.614;13.830;2023-07-20T06:26:53;18.70;99.90
7214;DHT22;3648;50.614;13.830;2023-07-20T06:29:20;18.70;99.90
7214;DHT22;3648;50.614;13.830;2023-07-20T06:31:47;18.70;99.90
7214;DHT22;3648;50.614;13.830;2023-07-20T06:34:14;18.80;99.90
7214;DHT22;3648;50.614;13.830;2023-07-20T06:36:41;18.80;99.90
7214;DHT22;3648;50.614;13.830;2023-07-20T06:39:08;18.90;99.90
7214;DHT22;3648;50.614;13.830;2023-07-20T06:41:36;18.90;99.90
7214;DHT22;3648;50.614;13.830;2023-07-20T06:44:04;18.90;99.90
7214;DHT22;3648;50.614;13.830;2023-07-20T06:46:32;19.00;99.90
7214;DHT22;3648;50.614;13.830;2023-07-20T06:48:59;19.00;99.90
7214;DHT22;3648;50.614;13.830;2023-07-20T06:51:26;19.00;99.90
7214;DHT22;3648;50.614;13.830;2023-07-20T06:53:53;19.10;99.90
7214;DHT22;3648;50.614;13.830;2023-07-20T06:56:20;19.10;99.90
7214;DHT22;3648;50.614;13.830;2023-07-20T06:58:48;19.20;99.90
7214;DHT22;3648;50.614;13.830;2023-07-20T07:01:15;19.20;99.90
7214;DHT22;3648;50.614;13.830;2023-07-20T07:03:42;19.30;99.90
7214;DHT22;3648;50.614;13.830;2023-07-20T07:06:11;19.30;99.90
7214;DHT22;3648;50.614;13.830;2023-07-20T07:08:38;19.40;99.90
7214;DHT22;3648;50.614;13.830;2023-07-20T07:11:05;19.50;99.90
7214;DHT22;3648;50.614;13.830;2023-07-20T07:13:32;19.50;99.90
7214;DHT22;3648;50.614;13.830;2023-07-20T07:16:00;19.50;99.90
7214;DHT22;3648;50.614;13.830;2023-07-20T07:18:27;19.50;99.90
7214;DHT22;3648;50.614;13.830;2023-07-20T07:20:54;19.50;99.90
7214;DHT22;3648;50.614;13.830;2023-07-20T07:23:21;19.50;99.90
7214;DHT22;3648;50.614;13.830;2023-07-20T07:25:48;19.50;99.90
7214;DHT22;3648;50.614;13.830;2023-07-20T07:28:16;19.50;99.90
7214;DHT22;3648;50.614;13.830;2023-07-20T07:30:43;19.50;99.90
7214;DHT22;3648;50.614;13.830;2023-07-20T07:33:11;19.50;99.90
7214;DHT22;3648;50.614;13.830;2023-07-20T07:35:39;19.50;99.90
7214;DHT22;3648;50.614;13.830;2023-07-20T07:38:06;19.50;99.90
7214;DHT22;3648;50.614;13.830;2023-07-20T07:40:33;19.50;99.90
7214;DHT22;3648;50.614;13.830;2023-07-20T07:43:00;19.60;99.90
7214;DHT22;3648;50.614;13.830;2023-07-20T07:45:27;19.60;99.90
7214;DHT22;3648;50.614;13.830;2023-07-20T07:47:54;19.70;99.90
7214;DHT22;3648;50.614;13.830;2023-07-20T07:50:23;19.70;99.90
7214;DHT22;3648;50.614;13.830;2023-07-20T07:52:50;19.70;99.90
7214;DHT22;3648;50.614;13.830;2023-07-20T07:55:18;19.70;99.90
7214;DHT22;3648;50.614;13.830;2023-07-20T07:57:44;19.70;99.90
7214;DHT22;3648;50.614;13.830;2023-07-20T08:00:14;19.80;99.90
7214;DHT22;3648;50.614;13.830;2023-07-20T08:02:45;19.80;99.90
7214;DHT22;3648;50.614;13.830;2023-07-20T08:05:12;19.80;99.90
7214;DHT22;3648;50.614;13.830;2023-07-20T08:07:40;19.80;99.90
7214;DHT22;3648;50.614;13.830;2023-07-20T08:10:08;19.90;99.90
7214;DHT22;3648;50.614;13.830;2023-07-20T08:12:35;19.90;99.90
7214;DHT22;3648;50.614;13.830;2023-07-20T08:15:02;19.90;99.90
7214;DHT22;3648;50.614;13.830;2023-07-20T08:17:30;19.80;99.90
7214;DHT22;3648;50.614;13.830;2023-07-20T08:19:57;19.80;99.90
7214;DHT22;3648;50.614;13.830;2023-07-20T08:22:24;19.80;99.90
7214;DHT22;3648;50.614;13.830;2023-07-20T08:24:53;19.80;99.90
7214;DHT22;3648;50.614;13.830;2023-07-20T08:27:20;19.80;99.90
7214;DHT22;3648;50.614;13.830;2023-07-20T08:29:47;19.80;99.90
7214;DHT22;3648;50.614;13.830;2023-07-20T08:32:14;19.90;99.90
7214;DHT22;3648;50.614;13.830;2023-07-20T08:34:41;19.90;99.90
7214;DHT22;3648;50.614;13.830;2023-07-20T08:37:09;19.90;99.90
7214;DHT22;3648;50.614;13.830;2023-07-20T08:39:36;19.90;99.90
7214;DHT22;3648;50.614;13.830;2023-07-20T08:42:06;19.90;99.90
7214;DHT22;3648;50.614;13.830;2023-07-20T08:44:34;20.00;99.90
7214;DHT22;3648;50.614;13.830;2023-07-20T08:47:03;20.00;99.90
7214;DHT22;3648;50.614;13.830;2023-07-20T08:49:32;20.00;99.90
7214;DHT22;3648;50.614;13.830;2023-07-20T08:51:59;20.10;99.90
7214;DHT22;3648;50.614;13.830;2023-07-20T08:54:30;20.20;99.90
7214;DHT22;3648;50.614;13.830;2023-07-20T08:57:02;20.30;99.90
7214;DHT22;3648;50.614;13.830;2023-07-20T08:59:31;20.40;99.90
7214;DHT22;3648;50.614;13.830;2023-07-20T09:02:00;20.50;99.90
7214;DHT22;3648;50.614;13.830;2023-07-20T09:04:27;20.60;99.90
7214;DHT22;3648;50.614;13.830;2023-07-20T09:06:54;20.60;99.90
7214;DHT22;3648;50.614;13.830;2023-07-20T09:09:21;20.70;99.90
7214;DHT22;3648;50.614;13.830;2023-07-20T09:11:49;20.70;99.90
7214;DHT22;3648;50.614;13.830;2023-07-20T09:14:16;20.70;99.90
7214;DHT22;3648;50.614;13.830;2023-07-20T09:16:49;20.70;99.90
7214;DHT22;3648;50.614;13.830;2023-07-20T09:19:16;20.70;99.90
7214;DHT22;3648;50.614;13.830;2023-07-20T09:21:47;20.80;99.90
7214;DHT22;3648;50.614;13.830;2023-07-20T09:24:16;21.00;99.90
7214;DHT22;3648;50.614;13.830;2023-07-20T09:26:49;21.20;99.90
7214;DHT22;3648;50.614;13.830;2023-07-20T09:29:18;21.30;99.90
7214;DHT22;3648;50.614;13.830;2023-07-20T09:32:01;21.40;99.90
7214;DHT22;3648;50.614;13.830;2023-07-20T09:34:32;21.50;99.90
7214;DHT22;3648;50.614;13.830;2023-07-20T09:36:59;21.70;99.90
7214;DHT22;3648;50.614;13.830;2023-07-20T09:39:27;21.80;99.90
7214;DHT22;3648;50.614;13.830;2023-07-20T09:41:54;21.90;99.90
7214;DHT22;3648;50.614;13.830;2023-07-20T09:44:21;22.00;99.90
7214;DHT22;3648;50.614;13.830;2023-07-20T09:46:50;22.00;99.90
7214;DHT22;3648;50.614;13.830;2023-07-20T09:49:19;22.00;99.90
7214;DHT22;3648;50.614;13.830;2023-07-20T09:51:46;22.00;99.90
7214;DHT22;3648;50.614;13.830;2023-07-20T09:54:17;22.00;99.90
7214;DHT22;3648;50.614;13.830;2023-07-20T09:56:44;22.10;99.90
7214;DHT22;3648;50.614;13.830;2023-07-20T09:59:15;22.20;99.90
7214;DHT22;3648;50.614;13.830;2023-07-20T10:01:43;22.30;99.90
7214;DHT22;3648;50.614;13.830;2023-07-20T10:04:11;22.40;99.90
7214;DHT22;3648;50.614;13.830;2023-07-20T10:06:43;22.40;99.90
7214;DHT22;3648;50.614;13.830;2023-07-20T10:09:13;22.40;99.90
7214;DHT22;3648;50.614;13.830;2023-07-20T10:11:45;22.40;99.90
7214;DHT22;3648;50.614;13.830;2023-07-20T10:14:18;22.40;99.90
7214;DHT22;3648;50.614;13.830;2023-07-20T10:16:51;22.50;99.90
7214;DHT22;3648;50.614;13.830;2023-07-20T10:19:23;22.50;99.90
7214;DHT22;3648;50.614;13.830;2023-07-20T10:21:57;22.50;99.90
7214;DHT22;3648;50.614;13.830;2023-07-20T10:24:28;22.60;99.90
7214;DHT22;3648;50.614;13.830;2023-07-20T10:26:56;22.60;99.90
7214;DHT22;3648;50.614;13.830;2023-07-20T10:29:23;22.60;99.90
7214;DHT22;3648;50.614;13.830;2023-07-20T10:31:54;22.60;99.90
7214;DHT22;3648;50.614;13.830;2023-07-20T10:34:23;22.70;99.90
7214;DHT22;3648;50.614;13.830;2023-07-20T10:36:58;22.70;99.90
7214;DHT22;3648;50.614;13.830;2023-07-20T10:39:31;22.70;99.90
7214;DHT22;3648;50.614;13.830;2023-07-20T10:42:02;22.70;99.90
7214;DHT22;3648;50.614;13.830;2023-07-20T10:44:30;22.80;99.90
7214;DHT22;3648;50.614;13.830;2023-07-20T10:47:01;23.00;99.90
7214;DHT22;3648;50.614;13.830;2023-07-20T10:49:28;23.00;99.90
7214;DHT22;3648;50.614;13.830;2023-07-20T10:52:03;22.90;99.90
7214;DHT22;3648;50.614;13.830;2023-07-20T10:54:49;23.00;99.90
7214;DHT22;3648;50.614;13.830;2023-07-20T10:57:24;22.90;99.90
7214;DHT22;3648;50.614;13.830;2023-07-20T11:00:11;22.90;99.90
7214;DHT22;3648;50.614;13.830;2023-07-20T11:02:47;22.90;99.90
7214;DHT22;3648;50.614;13.830;2023-07-20T11:05:37;23.00;99.90
7214;DHT22;3648;50.614;13.830;2023-07-20T11:08:11;22.90;99.90
7214;DHT22;3648;50.614;13.830;2023-07-20T11:10:39;22.90;99.90
7214;DHT22;3648;50.614;13.830;2023-07-20T11:13:16;22.90;99.90
7214;DHT22;3648;50.614;13.830;2023-07-20T11:15:48;22.90;99.90
7214;DHT22;3648;50.614;13.830;2023-07-20T11:18:15;23.00;99.90
7214;DHT22;3648;50.614;13.830;2023-07-20T11:20:42;23.00;99.90
7214;DHT22;3648;50.614;13.830;2023-07-20T11:23:11;23.10;99.90
7214;DHT22;3648;50.614;13.830;2023-07-20T11:25:39;23.10;99.90
7214;DHT22;3648;50.614;13.830;2023-07-20T11:28:08;23.20;99.90
7214;DHT22;3648;50.614;13.830;2023-07-20T11:30:37;23.30;99.90
7214;DHT22;3648;50.614;13.830;2023-07-20T11:33:04;23.50;99.90
7214;DHT22;3648;50.614;13.830;2023-07-20T11:35:35;23.60;99.90
7214;DHT22;3648;50.614;13.830;2023-07-20T11:38:03;23.80;99.90
7214;DHT22;3648;50.614;13.830;2023-07-20T11:40:34;23.90;99.90
7214;DHT22;3648;50.614;13.830;2023-07-20T11:43:01;23.90;99.90
7214;DHT22;3648;50.614;13.830;2023-07-20T11:45:28;24.00;99.90
7214;DHT22;3648;50.614;13.830;2023-07-20T11:47:58;24.00;99.90
7214;DHT22;3648;50.614;13.830;2023-07-20T11:50:26;24.10;99.90
7214;DHT22;3648;50.614;13.830;2023-07-20T11:52:53;24.20;99.90
7214;DHT22;3648;50.614;13.830;2023-07-20T11:55:20;24.20;99.90
7214;DHT22;3648;50.614;13.830;2023-07-20T11:58:06;24.10;99.90
7214;DHT22;3648;50.614;13.830;2023-07-20T12:00:33;23.90;99.90
7214;DHT22;3648;50.614;13.830;2023-07-20T12:03:01;23.80;99.90
7214;DHT22;3648;50.614;13.830;2023-07-20T12:05:28;23.70;99.90
7214;DHT22;3648;50.614;13.830;2023-07-20T12:07:55;23.60;99.90
7214;DHT22;3648;50.614;13.830;2023-07-20T12:10:26;23.60;99.90
7214;DHT22;3648;50.614;13.830;2023-07-20T12:13:01;23.50;99.90
7214;DHT22;3648;50.614;13.830;2023-07-20T12:15:30;23.40;99.90
7214;DHT22;3648;50.614;13.830;2023-07-20T12:17:58;23.30;99.90
7214;DHT22;3648;50.614;13.830;2023-07-20T12:20:27;23.20;99.90
7214;DHT22;3648;50.614;13.830;2023-07-20T12:22:57;23.20;99.90
7214;DHT22;3648;50.614;13.830;2023-07-20T12:25:33;23.10;99.90
7214;DHT22;3648;50.614;13.830;2023-07-20T12:28:01;23.10;99.90
7214;DHT22;3648;50.614;13.830;2023-07-20T12:30:30;23.10;99.90
7214;DHT22;3648;50.614;13.830;2023-07-20T12:32:58;23.10;99.90
7214;DHT22;3648;50.614;13.830;2023-07-20T12:35:25;23.10;99.90
7214;DHT22;3648;50.614;13.830;2023-07-20T12:37:53;23.10;99.90
7214;DHT22;3648;50.614;13.830;2023-07-20T12:40:20;23.10;99.90
7214;DHT22;3648;50.614;13.830;2023-07-20T12:42:47;23.20;99.90
7214;DHT22;3648;50.614;13.830;2023-07-20T12:45:14;23.30;99.90
7214;DHT22;3648;50.614;13.830;2023-07-20T12:47:42;23.30;99.90
7214;DHT22;3648;50.614;13.830;2023-07-20T12:50:10;23.20;99.90
7214;DHT22;3648;50.614;13.830;2023-07-20T12:52:37;23.20;99.90
7214;DHT22;3648;50.614;13.830;2023-07-20T12:55:06;23.20;99.90
7214;DHT22;3648;50.614;13.830;2023-07-20T12:57:33;23.20;99.90
7214;DHT22;3648;50.614;13.830;2023-07-20T13:00:00;23.20;99.90
7214;DHT22;3648;50.614;13.830;2023-07-20T13:02:29;23.10;99.90
7214;DHT22;3648;50.614;13.830;2023-07-20T13:04:58;23.10;99.90
7214;DHT22;3648;50.614;13.830;2023-07-20T13:07:31;23.00;99.90
7214;DHT22;3648;50.614;13.830;2023-07-20T13:09:59;23.10;99.90
7214;DHT22;3648;50.614;13.830;2023-07-20T13:12:27;23.00;99.90
7214;DHT22;3648;50.614;13.830;2023-07-20T13:14:54;23.00;99.90
7214;DHT22;3648;50.614;13.830;2023-07-20T13:17:22;23.00;99.90
7214;DHT22;3648;50.614;13.830;2023-07-20T13:19:50;22.90;99.90
7214;DHT22;3648;50.614;13.830;2023-07-20T13:22:18;22.90;99.90
7214;DHT22;3648;50.614;13.830;2023-07-20T13:24:46;22.90;99.90
7214;DHT22;3648;50.614;13.830;2023-07-20T13:27:14;22.90;99.90
7214;DHT22;3648;50.614;13.830;2023-07-20T13:29:41;22.80;99.90
7214;DHT22;3648;50.614;13.830;2023-07-20T13:32:09;22.70;99.90
7214;DHT22;3648;50.614;13.830;2023-07-20T13:34:36;22.50;99.90
7214;DHT22;3648;50.614;13.830;2023-07-20T13:37:03;22.30;99.90
7214;DHT22;3648;50.614;13.830;2023-07-20T13:39:32;22.10;99.90
7214;DHT22;3648;50.614;13.830;2023-07-20T13:41:59;22.00;99.90
7214;DHT22;3648;50.614;13.830;2023-07-20T13:44:28;21.80;99.90
7214;DHT22;3648;50.614;13.830;2023-07-20T13:46:55;21.80;99.90
7214;DHT22;3648;50.614;13.830;2023-07-20T13:49:22;21.60;99.90
7214;DHT22;3648;50.614;13.830;2023-07-20T13:51:49;21.50;99.90
7214;DHT22;3648;50.614;13.830;2023-07-20T13:54:17;21.40;99.90
7214;DHT22;3648;50.614;13.830;2023-07-20T13:56:45;21.30;99.90
7214;DHT22;3648;50.614;13.830;2023-07-20T13:59:12;21.20;99.90
7214;DHT22;3648;50.614;13.830;2023-07-20T14:01:39;21.10;99.90
7214;DHT22;3648;50.614;13.830;2023-07-20T14:04:07;21.00;99.90
7214;DHT22;3648;50.614;13.830;2023-07-20T14:06:35;20.80;99.90
7214;DHT22;3648;50.614;13.830;2023-07-20T14:09:03;20.70;99.90
7214;DHT22;3648;50.614;13.830;2023-07-20T14:11:30;20.40;99.90
7214;DHT22;3648;50.614;13.830;2023-07-20T14:13:58;20.10;99.90
7214;DHT22;3648;50.614;13.830;2023-07-20T14:16:25;19.80;99.90
7214;DHT22;3648;50.614;13.830;2023-07-20T14:18:53;19.80;99.90
7214;DHT22;3648;50.614;13.830;2023-07-20T14:21:20;19.60;99.90
7214;DHT22;3648;50.614;13.830;2023-07-20T14:23:49;19.40;99.90
7214;DHT22;3648;50.614;13.830;2023-07-20T14:26:16;19.40;99.90
7214;DHT22;3648;50.614;13.830;2023-07-20T14:28:43;19.30;99.90
7214;DHT22;3648;50.614;13.830;2023-07-20T14:31:12;19.30;99.90
7214;DHT22;3648;50.614;13.830;2023-07-20T14:33:39;19.40;99.90
7214;DHT22;3648;50.614;13.830;2023-07-20T14:36:06;19.50;99.90
7214;DHT22;3648;50.614;13.830;2023-07-20T14:38:34;19.60;99.90
7214;DHT22;3648;50.614;13.830;2023-07-20T14:41:02;19.70;99.90
7214;DHT22;3648;50.614;13.830;2023-07-20T14:43:29;19.80;99.90
7214;DHT22;3648;50.614;13.830;2023-07-20T14:45:56;19.90;99.90
7214;DHT22;3648;50.614;13.830;2023-07-20T14:48:24;20.00;99.90
7214;DHT22;3648;50.614;13.830;2023-07-20T14:50:51;20.10;99.90
7214;DHT22;3648;50.614;13.830;2023-07-20T14:53:18;20.20;99.90
7214;DHT22;3648;50.614;13.830;2023-07-20T14:55:45;20.30;99.90
7214;DHT22;3648;50.614;13.830;2023-07-20T14:58:13;20.40;99.90
7214;DHT22;3648;50.614;13.830;2023-07-20T15:00:40;20.40;99.90
7214;DHT22;3648;50.614;13.830;2023-07-20T15:03:07;20.40;99.90
7214;DHT22;3648;50.614;13.830;2023-07-20T15:05:36;20.40;99.90
7214;DHT22;3648;50.614;13.830;2023-07-20T15:08:04;20.30;99.90
7214;DHT22;3648;50.614;13.830;2023-07-20T15:10:32;20.30;99.90
7214;DHT22;3648;50.614;13.830;2023-07-20T15:12:59;20.30;99.90
7214;DHT22;3648;50.614;13.830;2023-07-20T15:15:26;20.50;99.90
7214;DHT22;3648;50.614;13.830;2023-07-20T15:17:53;20.50;99.90
7214;DHT22;3648;50.614;13.830;2023-07-20T15:20:21;20.60;99.90
7214;DHT22;3648;50.614;13.830;2023-07-20T15:22:49;20.70;99.90
7214;DHT22;3648;50.614;13.830;2023-07-20T15:25:16;20.80;99.90
7214;DHT22;3648;50.614;13.830;2023-07-20T15:27:43;20.70;99.90
7214;DHT22;3648;50.614;13.830;2023-07-20T15:30:11;20.80;99.90
7214;DHT22;3648;50.614;13.830;2023-07-20T15:32:39;20.80;99.90
7214;DHT22;3648;50.614;13.830;2023-07-20T15:35:07;20.70;99.90
7214;DHT22;3648;50.614;13.830;2023-07-20T15:37:35;20.80;99.90
7214;DHT22;3648;50.614;13.830;2023-07-20T15:40:04;20.70;99.90
7214;DHT22;3648;50.614;13.830;2023-07-20T15:42:32;20.80;99.90
7214;DHT22;3648;50.614;13.830;2023-07-20T15:44:59;20.80;99.90
7214;DHT22;3648;50.614;13.830;2023-07-20T15:47:26;20.80;99.90
7214;DHT22;3648;50.614;13.830;2023-07-20T15:49:53;20.80;99.90
7214;DHT22;3648;50.614;13.830;2023-07-20T15:52:20;20.80;99.90